Unicom:                    122.8

AWOS:                  118.275

Elevation           1458’ MSL

TPA:                   2500’ MSL

06/24:         5003’ L   75’ W

PAPI:       06/Left     24/Left

(Operate lights on unicom freq.)

Traffic Pattern: Left

Beacon: Sunset to Sunrise

Windsock: yes, lighted

Segmented Circle: No

 

Cleveland Center: 126.72/291.65

FSS: Altoona

[Source: ADDS]
METAR
KFKL 031356Z AUTO 30005KT 10SM CLR 26/17 A3005 RMK AO2 SLP164 T02560172 =
KFKL 031127Z 0312/0412 VRB03KT P6SM SKC FM031500 30005KT P6SM SCT060
TAF
KFKL 031127Z 0312/0412 VRB03KT P6SM SKC FM031500 30005KT P6SM SCT060 =
[Source: ADDS]
METAR
KDUJ 031353Z AUTO 28005KT 10SM CLR 26/16 A3003 RMK AO2 SLP152 T02560156 =
KDUJ 031127Z 0312/0412 28004KT P6SM SKC FM031500 30010KT P6SM SCT060
TAF
KDUJ 031127Z 0312/0412 28004KT P6SM SKC FM031500 30010KT P6SM SCT060 =

Flight Training.

                                    - 


                                                                                                      Bill Guth - CFI/ CFII/MEI

                                                                                                              814-229-5974

                                                                                                             Facebook Page


Practice Test Questions:                   http://www.exams4pilots.org/           http://www.airsafetyinstitute.org/tol_abortpoint 

                                                             http://www.mypilottests.com/           http://www.sportys.com/studybuddy


Flight Training Videos:                      http://www.rogerdodger.net/flighttraining/home.html

                                                            http://pilottutor.org/                              http://www.123pilot.com/

                                                            http://www.airsafetyinstitute.org/tol_abortpoint